createdAt,value
2017-12-23T00:52:57.587Z,16.94
2017-12-23T00:53:57.511Z,16.94
2017-12-23T00:54:57.614Z,16.94
2017-12-23T00:55:57.347Z,16.94
2017-12-23T00:56:57.568Z,16.94
2017-12-23T00:57:57.356Z,16.94
2017-12-23T00:58:57.537Z,16.94
2017-12-23T00:59:57.658Z,16.94
2017-12-23T01:00:57.533Z,16.94
2017-12-23T01:01:57.313Z,16.94
2017-12-23T01:02:56.965Z,16.87
2017-12-23T01:03:57.122Z,16.87
2017-12-23T01:04:56.989Z,16.87
2017-12-23T01:05:57.619Z,16.87
2017-12-23T01:06:57.974Z,16.87
2017-12-23T01:07:57.360Z,16.87
2017-12-23T01:08:57.427Z,16.87
2017-12-23T01:09:57.447Z,16.87
2017-12-23T01:10:57.677Z,16.87
2017-12-23T01:11:57.618Z,16.87
2017-12-23T01:12:57.904Z,16.87
2017-12-23T01:13:57.770Z,16.87
2017-12-23T01:14:57.141Z,16.87
2017-12-23T01:15:57.505Z,16.87
2017-12-23T01:16:57.784Z,16.87
2017-12-23T01:17:57.700Z,16.87
2017-12-23T01:18:57.601Z,16.81
2017-12-23T01:19:58.357Z,16.81
2017-12-23T01:20:57.829Z,16.81
2017-12-23T01:21:57.610Z,16.81
2017-12-23T01:22:57.410Z,16.81
2017-12-23T01:23:57.788Z,16.81
2017-12-23T01:24:57.536Z,16.81
2017-12-23T01:25:58.042Z,16.81
2017-12-23T01:26:57.206Z,16.81
2017-12-23T01:27:57.581Z,16.81
2017-12-23T01:28:57.609Z,16.81
2017-12-23T01:29:57.358Z,16.81
2017-12-23T01:30:57.400Z,16.81
2017-12-23T01:31:57.336Z,16.81
2017-12-23T01:32:57.208Z,16.81
2017-12-23T01:33:56.966Z,16.81
2017-12-23T01:34:57.331Z,16.81
2017-12-23T01:35:57.211Z,16.81
2017-12-23T01:36:57.625Z,16.81
2017-12-23T01:37:57.222Z,16.81
2017-12-23T01:38:57.906Z,16.81
2017-12-23T01:39:57.751Z,16.81
2017-12-23T01:40:57.171Z,16.81
2017-12-23T01:41:57.376Z,16.75
2017-12-23T01:42:57.003Z,16.75
2017-12-23T01:43:56.989Z,16.81
2017-12-23T01:44:57.584Z,16.75
2017-12-23T01:45:57.233Z,16.75
2017-12-23T01:46:57.424Z,16.75
2017-12-23T01:47:57.010Z,16.75
2017-12-23T01:48:56.968Z,16.75
2017-12-23T01:49:57.436Z,16.75
2017-12-23T01:50:57.365Z,16.75
2017-12-23T01:51:57.757Z,16.75
2017-12-23T01:52:57.588Z,16.75
2017-12-23T01:53:57.329Z,16.75
2017-12-23T01:54:57.720Z,16.75
2017-12-23T01:55:57.776Z,16.75
2017-12-23T01:56:57.598Z,16.75
2017-12-23T01:57:57.184Z,16.75
2017-12-23T01:58:58.058Z,16.75
2017-12-23T01:59:57.396Z,16.75
2017-12-23T02:00:57.386Z,16.75
2017-12-23T02:01:57.196Z,16.69
2017-12-23T02:02:57.611Z,16.69
2017-12-23T02:03:57.281Z,16.75
2017-12-23T02:04:57.315Z,16.75
2017-12-23T02:05:57.539Z,16.75
2017-12-23T02:06:57.620Z,16.69
2017-12-23T02:07:57.525Z,16.75
2017-12-23T02:08:57.468Z,16.69
2017-12-23T02:09:58.141Z,16.69
2017-12-23T02:10:57.413Z,16.69
2017-12-23T02:11:57.309Z,16.69
2017-12-23T02:12:56.962Z,16.69
2017-12-23T02:13:57.639Z,16.69
2017-12-23T02:14:57.217Z,16.69
2017-12-23T02:15:57.779Z,16.69
2017-12-23T02:16:57.423Z,16.69
2017-12-23T02:17:57.444Z,16.69
2017-12-23T02:18:57.055Z,16.69
2017-12-23T02:19:57.206Z,16.69
2017-12-23T02:20:57.224Z,16.69
2017-12-23T02:21:57.379Z,16.69
2017-12-23T02:22:57.050Z,16.69
2017-12-23T02:23:57.049Z,16.69
2017-12-23T02:24:57.884Z,16.69
2017-12-23T02:25:57.253Z,16.69
2017-12-23T02:26:57.826Z,16.69
2017-12-23T02:27:57.543Z,16.69
2017-12-23T02:28:57.445Z,16.69
2017-12-23T02:29:57.193Z,16.62
2017-12-23T02:30:57.255Z,16.69
2017-12-23T02:31:57.848Z,16.69
2017-12-23T02:32:57.331Z,16.62
2017-12-23T02:33:58.105Z,16.69
2017-12-23T02:34:57.853Z,16.62
2017-12-23T02:35:57.673Z,16.62
2017-12-23T02:36:58.096Z,16.62
2017-12-23T02:37:58.080Z,16.62
2017-12-23T02:38:58.376Z,16.62
2017-12-23T02:39:57.545Z,16.62
2017-12-23T02:40:58.031Z,16.62
2017-12-23T02:41:57.470Z,16.62
2017-12-23T02:42:57.449Z,16.62
2017-12-23T02:43:58.127Z,16.62
2017-12-23T02:44:57.454Z,16.62
2017-12-23T02:45:57.989Z,16.62
2017-12-23T02:46:58.055Z,16.62
2017-12-23T02:47:57.781Z,16.62
2017-12-23T02:48:58.124Z,16.62
2017-12-23T02:49:58.072Z,16.62
2017-12-23T02:50:57.465Z,16.62
2017-12-23T02:51:57.983Z,16.62
2017-12-23T02:52:57.975Z,16.62
2017-12-23T02:53:57.698Z,16.62
2017-12-23T02:54:57.700Z,16.62
2017-12-23T02:55:57.702Z,16.62
2017-12-23T02:56:58.043Z,16.56
2017-12-23T02:57:57.804Z,16.62
2017-12-23T02:58:57.576Z,16.56
2017-12-23T02:59:57.000Z,16.56
2017-12-23T03:00:57.640Z,16.56
2017-12-23T03:01:57.051Z,16.56
2017-12-23T03:02:57.607Z,16.56
2017-12-23T03:03:57.197Z,16.56
2017-12-23T03:04:57.037Z,16.56
2017-12-23T03:05:57.348Z,16.56
2017-12-23T03:06:57.228Z,16.56
2017-12-23T03:07:57.388Z,16.56
2017-12-23T03:08:57.623Z,16.56
2017-12-23T03:09:57.458Z,16.56
2017-12-23T03:10:57.458Z,16.56
2017-12-23T03:11:57.004Z,16.56
2017-12-23T03:12:57.460Z,16.56
2017-12-23T03:13:57.623Z,16.56
2017-12-23T03:14:57.707Z,16.56
2017-12-23T03:15:57.388Z,16.56
2017-12-23T03:16:57.447Z,16.56
2017-12-23T03:17:57.208Z,16.56
2017-12-23T03:18:57.674Z,16.56
2017-12-23T03:19:57.054Z,16.56
2017-12-23T03:20:57.236Z,16.56
2017-12-23T03:21:57.788Z,16.56
2017-12-23T03:22:57.848Z,16.56
2017-12-23T03:23:57.633Z,16.56
2017-12-23T03:24:57.728Z,16.56
2017-12-23T03:25:57.616Z,16.56
2017-12-23T03:26:57.750Z,16.56
2017-12-23T03:27:57.666Z,16.5
2017-12-23T03:28:57.540Z,16.5
2017-12-23T03:29:58.070Z,16.5
2017-12-23T03:30:57.843Z,16.5
2017-12-23T03:31:57.876Z,16.5
2017-12-23T03:32:57.562Z,16.5
2017-12-23T03:33:57.493Z,16.5
2017-12-23T03:34:57.471Z,16.5
2017-12-23T03:35:57.553Z,16.5
2017-12-23T03:36:57.231Z,16.5
2017-12-23T03:37:57.424Z,16.5
2017-12-23T03:38:57.215Z,16.5
2017-12-23T03:39:57.708Z,16.5
2017-12-23T03:40:57.379Z,16.5
2017-12-23T03:41:57.655Z,16.5
2017-12-23T03:42:57.544Z,16.5
2017-12-23T03:43:57.871Z,16.5
2017-12-23T03:44:57.505Z,16.5
2017-12-23T03:45:57.399Z,16.5
2017-12-23T03:46:57.261Z,16.5
2017-12-23T03:47:57.236Z,16.5
2017-12-23T03:48:57.569Z,16.5
2017-12-23T03:49:57.970Z,16.5
2017-12-23T03:50:57.489Z,16.5
2017-12-23T03:51:57.671Z,16.5
2017-12-23T03:52:57.849Z,16.5
2017-12-23T03:53:57.462Z,16.5
2017-12-23T03:54:57.479Z,16.5
2017-12-23T03:55:57.271Z,16.5
2017-12-23T03:56:57.195Z,16.44
2017-12-23T03:57:58.026Z,16.44
2017-12-23T03:58:57.193Z,16.44
2017-12-23T03:59:57.490Z,16.44
2017-12-23T04:00:57.809Z,16.44
2017-12-23T04:01:57.623Z,16.44
2017-12-23T04:02:57.275Z,16.44
2017-12-23T04:03:56.863Z,16.44
2017-12-23T04:04:57.622Z,16.44
2017-12-23T04:05:57.698Z,16.44
2017-12-23T04:06:57.607Z,16.44
2017-12-23T04:07:57.470Z,16.44
2017-12-23T04:08:57.487Z,16.44
2017-12-23T04:09:57.822Z,16.44
2017-12-23T04:10:57.474Z,16.44
2017-12-23T04:11:57.419Z,16.44
2017-12-23T04:12:57.280Z,16.44
2017-12-23T04:13:57.040Z,16.44
2017-12-23T04:14:57.251Z,16.44
2017-12-23T04:15:57.049Z,16.44
2017-12-23T04:16:57.212Z,16.44
2017-12-23T04:17:57.495Z,16.44
2017-12-23T04:18:57.287Z,16.44
2017-12-23T04:19:57.685Z,16.44
2017-12-23T04:20:57.979Z,16.44
2017-12-23T04:21:57.495Z,16.44
2017-12-23T04:22:57.268Z,16.44
2017-12-23T04:23:57.621Z,16.44
2017-12-23T04:24:57.388Z,16.44
2017-12-23T04:25:57.719Z,16.37
2017-12-23T04:26:57.683Z,16.44
2017-12-23T04:27:57.198Z,16.37
2017-12-23T04:28:57.576Z,16.44
2017-12-23T04:29:57.189Z,16.37
2017-12-23T04:30:57.210Z,16.37
2017-12-23T04:31:57.281Z,16.44
2017-12-23T04:32:57.299Z,16.37
2017-12-23T04:33:57.480Z,16.37
2017-12-23T04:34:57.430Z,16.37
2017-12-23T04:35:57.636Z,16.37
2017-12-23T04:36:57.683Z,16.37
2017-12-23T04:37:57.437Z,16.37
2017-12-23T04:38:57.688Z,16.37
2017-12-23T04:39:57.380Z,16.37
2017-12-23T04:40:57.245Z,16.37
2017-12-23T04:41:57.696Z,16.37
2017-12-23T04:42:57.074Z,16.37
2017-12-23T04:43:57.279Z,16.37
2017-12-23T04:44:58.095Z,16.37
2017-12-23T04:45:57.667Z,16.37
2017-12-23T04:46:57.496Z,16.37
2017-12-23T04:47:57.430Z,16.37
2017-12-23T04:48:57.241Z,16.37
2017-12-23T04:49:57.811Z,16.37
2017-12-23T04:50:57.433Z,16.37
2017-12-23T04:51:57.999Z,16.37
2017-12-23T04:52:57.057Z,16.37
2017-12-23T04:53:57.295Z,16.37
2017-12-23T04:54:57.270Z,16.37
2017-12-23T04:55:57.367Z,16.37
2017-12-23T04:56:57.472Z,16.37
2017-12-23T04:57:57.674Z,16.37
2017-12-23T04:58:57.843Z,16.37
2017-12-23T04:59:57.513Z,16.37
2017-12-23T05:00:57.491Z,16.37
2017-12-23T05:01:57.264Z,16.37
2017-12-23T05:02:58.465Z,16.37
2017-12-23T05:03:57.854Z,16.44
2017-12-23T05:05:28.417Z,16.44
2017-12-23T05:05:57.030Z,16.44
2017-12-23T05:06:57.638Z,16.44
2017-12-23T05:07:57.357Z,16.44
2017-12-23T05:08:57.288Z,16.44
2017-12-23T05:09:57.613Z,16.44
2017-12-23T05:10:57.833Z,16.44
2017-12-23T05:11:57.411Z,16.5
2017-12-23T05:12:58.075Z,16.5
2017-12-23T05:13:57.046Z,16.5
2017-12-23T05:14:58.671Z,16.5
2017-12-23T05:15:57.139Z,16.5
2017-12-23T05:17:30.170Z,16.56
2017-12-23T05:17:57.506Z,16.56
2017-12-23T05:18:57.476Z,16.56
2017-12-23T05:19:57.920Z,16.62
2017-12-23T05:20:57.208Z,16.62
2017-12-23T05:21:57.664Z,16.62
2017-12-23T05:22:57.641Z,16.62
2017-12-23T05:23:57.428Z,16.69
2017-12-23T05:24:57.576Z,16.69
2017-12-23T05:25:57.480Z,16.69
2017-12-23T05:26:57.500Z,16.75
2017-12-23T05:27:58.407Z,16.75
2017-12-23T05:28:57.227Z,16.75
2017-12-23T05:29:57.036Z,16.81
2017-12-23T05:30:57.572Z,16.81
2017-12-23T05:31:57.823Z,16.81
2017-12-23T05:32:57.523Z,16.81
2017-12-23T05:33:57.512Z,16.87
2017-12-23T05:34:57.697Z,16.87
2017-12-23T05:35:57.467Z,16.87
2017-12-23T05:36:57.428Z,16.94
2017-12-23T05:37:57.503Z,16.94
2017-12-23T05:38:57.425Z,16.94
2017-12-23T05:39:57.246Z,17
2017-12-23T05:40:57.469Z,17
2017-12-23T05:41:56.893Z,17
2017-12-23T05:42:57.685Z,17
2017-12-23T05:43:57.357Z,17.06
2017-12-23T05:44:57.753Z,17.06
2017-12-23T05:45:57.630Z,17.06
2017-12-23T05:46:57.506Z,17.06
2017-12-23T05:47:57.792Z,17.12
2017-12-23T05:48:57.866Z,17.12
2017-12-23T05:49:57.286Z,17.12
2017-12-23T05:50:57.373Z,17.12
2017-12-23T05:51:57.206Z,17.19
2017-12-23T05:52:57.461Z,17.19
2017-12-23T05:53:57.860Z,17.19
2017-12-23T05:54:57.230Z,17.19
2017-12-23T05:55:57.878Z,17.25
2017-12-23T05:56:57.650Z,17.25
2017-12-23T05:57:57.868Z,17.25
2017-12-23T05:58:57.469Z,17.25
2017-12-23T05:59:57.531Z,17.31
2017-12-23T06:00:57.558Z,17.31
2017-12-23T06:01:57.164Z,17.31
2017-12-23T06:02:57.442Z,17.31
2017-12-23T06:03:57.390Z,17.31
2017-12-23T06:04:57.644Z,17.37
2017-12-23T06:05:57.690Z,17.37
2017-12-23T06:06:57.508Z,17.37
2017-12-23T06:07:57.248Z,17.37
2017-12-23T06:08:57.315Z,17.37
2017-12-23T06:09:57.355Z,17.37
2017-12-23T06:10:57.444Z,17.44
2017-12-23T06:11:57.654Z,17.44
2017-12-23T06:12:57.438Z,17.44
2017-12-23T06:13:57.686Z,17.44
2017-12-23T06:14:57.296Z,17.44
2017-12-23T06:15:57.695Z,17.44
2017-12-23T06:16:58.166Z,17.5
2017-12-23T06:17:57.296Z,17.5
2017-12-23T06:18:57.816Z,17.5
2017-12-23T06:19:58.086Z,17.5
2017-12-23T06:20:57.347Z,17.5
2017-12-23T06:21:57.435Z,17.5
2017-12-23T06:22:57.046Z,17.5
2017-12-23T06:23:57.215Z,17.56
2017-12-23T06:24:57.838Z,17.56
2017-12-23T06:25:57.505Z,17.56
2017-12-23T06:26:57.245Z,17.56
2017-12-23T06:27:57.284Z,17.56
2017-12-23T06:28:57.456Z,17.56
2017-12-23T06:29:57.489Z,17.56
2017-12-23T06:30:57.142Z,17.56
2017-12-23T06:31:57.549Z,17.56
2017-12-23T06:32:57.576Z,17.62
2017-12-23T06:33:57.724Z,17.62
2017-12-23T06:34:57.342Z,17.62
2017-12-23T06:35:57.458Z,17.62
2017-12-23T06:36:57.911Z,17.62
2017-12-23T06:37:57.229Z,17.62
2017-12-23T06:38:57.527Z,17.62
2017-12-23T06:39:57.350Z,17.62
2017-12-23T06:40:57.336Z,17.62
2017-12-23T06:41:57.446Z,17.62
2017-12-23T06:42:57.668Z,17.62
2017-12-23T06:43:57.335Z,17.69
2017-12-23T06:44:57.444Z,17.69
2017-12-23T06:45:57.535Z,17.69
2017-12-23T06:46:58.120Z,17.69
2017-12-23T06:47:57.703Z,17.69
2017-12-23T06:48:57.865Z,17.69
2017-12-23T06:49:57.277Z,17.69
2017-12-23T06:50:57.471Z,17.69
2017-12-23T06:51:57.732Z,17.69
2017-12-23T06:52:57.232Z,17.69
2017-12-23T06:53:57.292Z,17.69
2017-12-23T06:54:57.133Z,17.69
2017-12-23T06:55:57.084Z,17.69
2017-12-23T06:56:57.508Z,17.69
2017-12-23T06:57:57.735Z,17.69
2017-12-23T06:58:57.492Z,17.75
2017-12-23T06:59:57.470Z,17.75
2017-12-23T07:00:58.126Z,17.69
2017-12-23T07:01:57.740Z,17.75
2017-12-23T07:02:57.345Z,17.75
2017-12-23T07:03:57.350Z,17.75
2017-12-23T07:04:57.257Z,17.75
2017-12-23T07:05:57.282Z,17.75
2017-12-23T07:06:57.285Z,17.75
2017-12-23T07:07:57.505Z,17.75
2017-12-23T07:08:57.499Z,17.75
2017-12-23T07:09:57.483Z,17.75
2017-12-23T07:10:57.341Z,17.75
2017-12-23T07:11:57.469Z,17.75
2017-12-23T07:12:57.530Z,17.75
2017-12-23T07:13:57.093Z,17.75
2017-12-23T07:14:57.446Z,17.75
2017-12-23T07:15:57.332Z,17.75
2017-12-23T07:16:58.038Z,17.75
2017-12-23T07:17:57.756Z,17.75
2017-12-23T07:18:57.509Z,17.75
2017-12-23T07:19:57.802Z,17.75
2017-12-23T07:20:57.734Z,17.75
2017-12-23T07:21:58.077Z,17.75
2017-12-23T07:22:58.047Z,17.75
2017-12-23T07:23:57.358Z,17.75
2017-12-23T07:24:57.976Z,17.75
2017-12-23T07:25:57.880Z,17.75
2017-12-23T07:26:57.848Z,17.81
2017-12-23T07:27:57.471Z,17.81
2017-12-23T07:28:57.570Z,17.81
2017-12-23T07:29:57.688Z,17.81
2017-12-23T07:30:57.763Z,17.81
2017-12-23T07:31:57.385Z,17.81
2017-12-23T07:32:58.494Z,17.81
2017-12-23T07:33:57.953Z,17.81
2017-12-23T07:34:57.946Z,17.81
2017-12-23T07:35:57.540Z,17.81
2017-12-23T07:36:57.507Z,17.81
2017-12-23T07:37:57.558Z,17.81
2017-12-23T07:38:57.894Z,17.81
2017-12-23T07:39:58.093Z,17.81
2017-12-23T07:40:57.587Z,17.81
2017-12-23T07:41:57.923Z,17.81
2017-12-23T07:42:57.183Z,17.87
2017-12-23T07:43:58.116Z,17.87
2017-12-23T07:44:57.319Z,17.87
2017-12-23T07:45:57.887Z,17.87
2017-12-23T07:46:57.719Z,17.87
2017-12-23T07:47:57.540Z,17.87
2017-12-23T07:48:57.976Z,17.87
2017-12-23T07:49:57.720Z,17.87
2017-12-23T07:50:57.491Z,17.87
2017-12-23T07:51:57.536Z,17.87
2017-12-23T07:52:57.467Z,17.87
2017-12-23T07:53:57.593Z,17.87
2017-12-23T07:54:57.835Z,17.87
2017-12-23T07:55:57.350Z,17.87
2017-12-23T07:56:57.759Z,17.87
2017-12-23T07:57:58.476Z,17.87
2017-12-23T07:58:57.731Z,17.87
2017-12-23T07:59:57.275Z,17.87
2017-12-23T08:00:58.235Z,17.87
2017-12-23T08:01:57.477Z,17.87
2017-12-23T08:02:57.481Z,17.87
2017-12-23T08:03:57.492Z,17.87
2017-12-23T08:04:57.436Z,17.87
2017-12-23T08:05:57.556Z,17.87
2017-12-23T08:06:57.706Z,17.87
2017-12-23T08:07:57.968Z,17.87
2017-12-23T08:08:57.718Z,17.87
2017-12-23T08:09:58.074Z,17.87
2017-12-23T08:10:57.664Z,17.87
2017-12-23T08:11:57.529Z,17.87
2017-12-23T08:12:57.930Z,17.94
2017-12-23T08:13:58.301Z,17.94
2017-12-23T08:14:57.572Z,17.87
2017-12-23T08:15:57.398Z,17.94
2017-12-23T08:16:57.979Z,17.94
2017-12-23T08:17:57.569Z,17.94
2017-12-23T08:18:57.394Z,17.94
2017-12-23T08:19:58.062Z,17.94
2017-12-23T08:20:57.563Z,17.94
2017-12-23T08:21:57.949Z,17.94
2017-12-23T08:22:57.574Z,17.94
2017-12-23T08:23:57.568Z,17.94
2017-12-23T08:24:58.182Z,17.94
2017-12-23T08:25:57.723Z,17.94
2017-12-23T08:26:57.447Z,17.94
2017-12-23T08:27:57.517Z,18
2017-12-23T08:28:57.391Z,17.94
2017-12-23T08:29:57.542Z,17.94
2017-12-23T08:30:57.407Z,18
2017-12-23T08:31:57.680Z,18
2017-12-23T08:32:58.053Z,18
2017-12-23T08:33:57.666Z,18
2017-12-23T08:34:57.957Z,18
2017-12-23T08:35:57.655Z,18
2017-12-23T08:36:57.179Z,18
2017-12-23T08:37:57.544Z,18
2017-12-23T08:38:57.698Z,18
2017-12-23T08:39:57.736Z,18
2017-12-23T08:40:57.630Z,18
2017-12-23T08:41:57.220Z,18
2017-12-23T08:42:57.589Z,18
2017-12-23T08:43:57.581Z,18
2017-12-23T08:44:57.372Z,18
2017-12-23T08:45:57.802Z,18
2017-12-23T08:46:57.788Z,18
2017-12-23T08:48:00.117Z,18
2017-12-23T08:49:57.826Z,18
2017-12-23T08:50:58.532Z,18
2017-12-23T08:51:57.542Z,18.06
2017-12-23T08:52:57.830Z,18
2017-12-23T08:53:58.207Z,18.06
2017-12-23T08:54:57.651Z,18.06
2017-12-23T08:55:58.190Z,18.06
2017-12-23T08:56:57.407Z,18.06
2017-12-23T08:57:57.436Z,18.06
2017-12-23T08:58:57.026Z,18.06
2017-12-23T08:59:57.553Z,18.06
2017-12-23T09:00:56.985Z,18.06
2017-12-23T09:01:57.384Z,18.06
2017-12-23T09:02:58.389Z,18.06
2017-12-23T09:03:57.613Z,18.06
2017-12-23T09:04:58.040Z,18.06
2017-12-23T09:05:57.397Z,18.06
2017-12-23T09:06:57.623Z,18.06
2017-12-23T09:07:57.544Z,18.06
2017-12-23T09:08:57.039Z,18.06
2017-12-23T09:09:57.563Z,18.06
2017-12-23T09:10:56.965Z,18.06
2017-12-23T09:11:57.550Z,18.06
2017-12-23T09:12:57.945Z,18.06
2017-12-23T09:13:57.578Z,18.06
2017-12-23T09:14:57.809Z,18.06
2017-12-23T09:15:58.155Z,18.06
2017-12-23T09:16:57.700Z,18.06
2017-12-23T09:17:57.364Z,18.06
2017-12-23T09:18:58.157Z,18.06
2017-12-23T09:19:57.570Z,18.06
2017-12-23T09:20:57.769Z,18.06
2017-12-23T09:21:58.228Z,18.06
2017-12-23T09:22:57.768Z,18.06
2017-12-23T09:23:57.748Z,18.12
2017-12-23T09:24:57.975Z,18.12
2017-12-23T09:25:58.006Z,18.06
2017-12-23T09:26:57.400Z,18.06
2017-12-23T09:27:57.775Z,18.12
2017-12-23T09:28:57.554Z,18.12
2017-12-23T09:29:57.757Z,18.12
2017-12-23T09:30:57.649Z,18.12
2017-12-23T09:31:57.819Z,18.12
2017-12-23T09:32:57.834Z,18.12
2017-12-23T09:33:57.364Z,18.12
2017-12-23T09:34:57.784Z,18.12
2017-12-23T09:35:57.636Z,18.12
2017-12-23T09:36:58.046Z,18.12
2017-12-23T09:37:57.855Z,18.12
2017-12-23T09:38:57.378Z,18.12
2017-12-23T09:39:57.800Z,18.12
2017-12-23T09:40:57.831Z,18.12
2017-12-23T09:41:57.809Z,18.12
2017-12-23T09:42:57.764Z,18.12
2017-12-23T09:43:57.357Z,18.12
2017-12-23T09:44:57.616Z,18.12
2017-12-23T09:45:57.201Z,18.12
2017-12-23T09:46:57.834Z,18.12
2017-12-23T09:47:58.187Z,18.12
2017-12-23T09:48:58.076Z,18.12
2017-12-23T09:49:57.231Z,18.12
2017-12-23T09:50:57.797Z,18.12
2017-12-23T09:51:57.818Z,18.12
2017-12-23T09:52:57.355Z,18.12
2017-12-23T09:53:57.662Z,18.12
2017-12-23T09:54:58.226Z,18.12
2017-12-23T09:55:57.453Z,18.12
2017-12-23T09:56:58.063Z,18.12
2017-12-23T09:57:57.647Z,18.12
2017-12-23T09:58:57.564Z,18.12
2017-12-23T09:59:57.415Z,18.12
2017-12-23T10:00:57.418Z,18.12
2017-12-23T10:01:58.058Z,18.12
2017-12-23T10:02:57.762Z,18.12
2017-12-23T10:03:57.623Z,18.12
2017-12-23T10:04:57.629Z,18.12
2017-12-23T10:05:58.034Z,18.12
2017-12-23T10:06:57.745Z,18.12
2017-12-23T10:07:57.647Z,18.12
2017-12-23T10:08:57.120Z,18.12
2017-12-23T10:09:57.798Z,18.12
2017-12-23T10:10:58.086Z,18.12
2017-12-23T10:11:57.853Z,18.12
2017-12-23T10:12:57.826Z,18.12
2017-12-23T10:13:58.163Z,18.12
2017-12-23T10:14:57.473Z,18.12
2017-12-23T10:15:58.066Z,18.12
2017-12-23T10:16:57.960Z,18.12
2017-12-23T10:17:57.761Z,18.12
2017-12-23T10:18:57.810Z,18.12
2017-12-23T10:19:57.520Z,18.12
2017-12-23T10:20:57.463Z,18.12
2017-12-23T10:21:57.404Z,18.12
2017-12-23T10:22:57.738Z,18.12
2017-12-23T10:23:57.458Z,18.12
2017-12-23T10:24:57.978Z,18.12
2017-12-23T10:25:58.114Z,18.12
2017-12-23T10:26:28.979Z,18.12
2017-12-23T10:27:28.799Z,18.12
2017-12-23T10:28:29.018Z,18.19
2017-12-23T10:29:29.419Z,18.19
2017-12-23T10:30:29.241Z,18.19
2017-12-23T10:31:31.643Z,18.19
2017-12-23T10:32:29.038Z,18.19
2017-12-23T10:33:29.656Z,18.19
2017-12-23T10:34:29.295Z,18.19
2017-12-23T10:35:29.485Z,18.25
2017-12-23T10:36:28.817Z,18.25
2017-12-23T10:37:29.124Z,18.25
2017-12-23T10:38:29.189Z,18.25
2017-12-23T10:39:29.274Z,18.19
2017-12-23T10:40:29.259Z,18.19
2017-12-23T10:41:28.826Z,18.19
2017-12-23T10:42:29.389Z,18.19
2017-12-23T10:43:29.338Z,18.19
2017-12-23T10:44:29.378Z,18.19
2017-12-23T10:45:29.075Z,18.19
2017-12-23T10:46:29.032Z,18.19
2017-12-23T10:47:29.540Z,18.19
2017-12-23T10:48:29.011Z,18.19
2017-12-23T10:49:29.357Z,18.19
2017-12-23T10:50:29.248Z,18.19
2017-12-23T10:51:28.990Z,18.19
2017-12-23T10:52:29.430Z,18.19
2017-12-23T10:53:29.406Z,18.19
2017-12-23T10:54:29.069Z,18.19
2017-12-23T10:55:29.441Z,18.19
2017-12-23T10:56:29.120Z,18.19
2017-12-23T10:57:28.738Z,18.19
2017-12-23T10:58:29.013Z,18.19
2017-12-23T10:59:29.317Z,18.19
2017-12-23T11:00:29.229Z,18.12
2017-12-23T11:01:29.457Z,18.19
2017-12-23T11:02:29.042Z,18.19
2017-12-23T11:03:29.240Z,18.19
2017-12-23T11:04:29.398Z,18.19
2017-12-23T11:05:29.342Z,18.19
2017-12-23T11:06:29.739Z,18.19
2017-12-23T11:07:29.236Z,18.19
2017-12-23T11:08:29.177Z,18.19
2017-12-23T11:09:29.237Z,18.19
2017-12-23T11:10:29.071Z,18.19
2017-12-23T11:11:28.877Z,18.19
2017-12-23T11:12:29.301Z,18.19
2017-12-23T11:13:29.319Z,18.19
2017-12-23T11:14:29.453Z,18.19
2017-12-23T11:15:29.024Z,18.19
2017-12-23T11:16:29.337Z,18.19
2017-12-23T11:17:29.124Z,18.19
2017-12-23T11:18:29.231Z,18.19
2017-12-23T11:19:29.760Z,18.19
2017-12-23T11:20:29.214Z,18.12
2017-12-23T11:21:29.370Z,18.12
2017-12-23T11:22:29.490Z,18.19
2017-12-23T11:23:29.256Z,18.12
2017-12-23T11:24:29.187Z,18.12
2017-12-23T11:25:28.830Z,18.19
2017-12-23T11:26:29.788Z,18.12
2017-12-23T11:27:28.905Z,18.12
2017-12-23T11:28:29.045Z,18.12
2017-12-23T11:29:28.813Z,18.12
2017-12-23T11:30:29.785Z,18.12
2017-12-23T11:31:29.602Z,18.12
2017-12-23T11:32:29.450Z,18.12
2017-12-23T11:33:29.024Z,18.12
2017-12-23T11:34:29.247Z,18.12
2017-12-23T11:35:28.843Z,18.12
2017-12-23T11:36:29.450Z,18.12
2017-12-23T11:37:29.186Z,18.12
2017-12-23T11:38:29.593Z,18.12
2017-12-23T11:39:29.069Z,18.12
2017-12-23T11:40:29.461Z,18.12
2017-12-23T11:41:29.585Z,18.12
2017-12-23T11:42:29.281Z,18.12
2017-12-23T11:43:29.351Z,18.12
2017-12-23T11:44:29.195Z,18.12
2017-12-23T11:45:29.236Z,18.12
2017-12-23T11:46:29.073Z,18.12
2017-12-23T11:47:29.373Z,18.12
2017-12-23T11:48:29.039Z,18.06
2017-12-23T11:49:29.114Z,18.06
2017-12-23T11:50:29.616Z,18.12
2017-12-23T11:51:29.244Z,18.06
2017-12-23T11:52:29.294Z,18.12
2017-12-23T11:53:29.094Z,18.06
2017-12-23T11:54:28.827Z,18.06
2017-12-23T11:55:29.059Z,18.06
2017-12-23T11:56:29.648Z,18.06
2017-12-23T11:57:29.250Z,18.06
2017-12-23T11:58:29.040Z,18.06
2017-12-23T11:59:29.243Z,18.06
2017-12-23T12:00:29.246Z,18.06
2017-12-23T12:01:29.465Z,18.06
2017-12-23T12:02:28.995Z,18.06
2017-12-23T12:03:29.058Z,18.06
2017-12-23T12:04:29.709Z,18.12
2017-12-23T12:05:28.818Z,18.06
2017-12-23T12:06:29.466Z,18.06
2017-12-23T12:07:29.244Z,18.06
2017-12-23T12:08:29.430Z,18.12
2017-12-23T12:09:29.429Z,18.12
2017-12-23T12:10:29.017Z,18.12
2017-12-23T12:11:29.115Z,18.12
2017-12-23T12:12:29.743Z,18.12
2017-12-23T12:13:29.518Z,18.12
2017-12-23T12:14:29.224Z,18.12
2017-12-23T12:15:29.067Z,18.12
2017-12-23T12:16:29.666Z,18.12
2017-12-23T12:17:29.223Z,18.12
2017-12-23T12:18:28.697Z,18.12
2017-12-23T12:19:28.962Z,18.12
2017-12-23T12:20:29.519Z,18.12
2017-12-23T12:21:29.497Z,18.12
2017-12-23T12:22:29.548Z,18.12
2017-12-23T12:23:29.303Z,18.19
2017-12-23T12:24:29.239Z,18.19
2017-12-23T12:25:29.179Z,18.19
2017-12-23T12:26:29.464Z,18.19
2017-12-23T12:27:28.730Z,18.19
2017-12-23T12:28:29.363Z,18.19
2017-12-23T12:29:29.760Z,18.19
2017-12-23T12:30:29.112Z,18.19
2017-12-23T12:31:29.253Z,18.19
2017-12-23T12:32:29.227Z,18.19
2017-12-23T12:33:29.356Z,18.19
2017-12-23T12:34:29.098Z,18.19
2017-12-23T12:35:28.915Z,18.19
2017-12-23T12:36:29.042Z,18.19
2017-12-23T12:37:29.385Z,18.19
2017-12-23T12:38:29.175Z,18.19
2017-12-23T12:39:29.257Z,18.25
2017-12-23T12:40:29.839Z,18.25
2017-12-23T12:41:29.099Z,18.25
2017-12-23T12:42:29.470Z,18.25
2017-12-23T12:43:28.734Z,18.25
2017-12-23T12:44:29.365Z,18.25
2017-12-23T12:45:28.811Z,18.25
2017-12-23T12:46:29.277Z,18.25
2017-12-23T12:47:28.925Z,18.25
2017-12-23T12:48:29.267Z,18.25
2017-12-23T12:49:29.458Z,18.25
2017-12-23T12:50:29.045Z,18.25
2017-12-23T12:51:28.846Z,18.25
2017-12-23T12:52:29.010Z,18.25
2017-12-23T12:53:29.185Z,18.25
2017-12-23T12:54:28.988Z,18.25
2017-12-23T12:55:29.528Z,18.25
2017-12-23T12:56:28.856Z,18.25
2017-12-23T12:57:29.229Z,18.25
2017-12-23T12:58:29.381Z,18.25
2017-12-23T12:59:29.141Z,18.25
2017-12-23T13:00:29.610Z,18.25
2017-12-23T13:01:29.094Z,18.25
2017-12-23T13:02:28.976Z,18.25
2017-12-23T13:03:28.818Z,18.25
2017-12-23T13:04:28.968Z,18.25
2017-12-23T13:05:29.496Z,18.31
2017-12-23T13:06:29.299Z,18.25
2017-12-23T13:07:28.687Z,18.25
2017-12-23T13:08:29.280Z,18.25
2017-12-23T13:09:29.295Z,18.25
2017-12-23T13:10:29.557Z,18.25
2017-12-23T13:11:29.485Z,18.25
2017-12-23T13:12:28.744Z,18.31
2017-12-23T13:13:29.242Z,18.31
2017-12-23T13:14:29.435Z,18.31
2017-12-23T13:15:29.654Z,18.31
2017-12-23T13:16:29.277Z,18.31
2017-12-23T13:17:28.715Z,18.31
2017-12-23T13:18:29.801Z,18.31
2017-12-23T13:19:29.024Z,18.31
2017-12-23T13:20:29.403Z,18.31
2017-12-23T13:21:29.112Z,18.31
2017-12-23T13:22:29.415Z,18.31
2017-12-23T13:23:29.710Z,18.31
2017-12-23T13:24:29.313Z,18.31
2017-12-23T13:25:28.939Z,18.31
2017-12-23T13:26:28.869Z,18.31
2017-12-23T13:27:29.779Z,18.31
2017-12-23T13:28:28.893Z,18.31
2017-12-23T13:29:29.072Z,18.31
2017-12-23T13:30:29.068Z,18.31
2017-12-23T13:31:29.271Z,18.31
2017-12-23T13:32:29.183Z,18.31
2017-12-23T13:33:29.311Z,18.31
2017-12-23T13:34:29.316Z,18.31
2017-12-23T13:35:29.557Z,18.31
2017-12-23T13:36:29.143Z,18.31
2017-12-23T13:37:29.118Z,18.31
2017-12-23T13:38:29.328Z,18.31
2017-12-23T13:39:28.929Z,18.31
2017-12-23T13:40:29.486Z,18.31
2017-12-23T13:41:28.930Z,18.31
2017-12-23T13:42:29.028Z,18.31
2017-12-23T13:43:30.120Z,18.31
2017-12-23T13:44:29.437Z,18.31
2017-12-23T13:45:28.946Z,18.31
2017-12-23T13:46:29.697Z,18.31
2017-12-23T13:47:29.658Z,18.31
2017-12-23T13:48:29.450Z,18.31
2017-12-23T13:49:29.015Z,18.31